Attica Junction, Ohio
Current Conditions -  °F | °C
As of 5:52 AM on Saturday 20 Dec 2014 (Local Time) from KMFD Reporting Station
Overcast Overcast  
Wind Chill: 28°   Ceiling: 1800
Heat Index: 28°   Visibility: 9mi
Dew Point: 22°   Wind: 0mph
Humidity: 78%   Direction: NA
Pressure: 30.24"   Gusts: NA
Location:  41.0654°N, 82.876°W
Report Text: KMFD 201052Z 00000KT 9SM OVC018 M02/M06 A3024 RMK AO2 SLP258 T10221056
Loading
Personal Weather Stations






























Interactive Weather Map New forecast layout! Learn more

10-Day Weather Forecast

Advertisements
Track Severe Weather on mobile